Time;durP1;ratioP1;P1;durP2;ratioP2;P2;SDS_P1;SDS_P2;PMS_P1;PMS_P2;Temp;Humidity;BMP_temperature;BMP_pressure;BME280_temperature;BME280_humidity;BME280_pressure;Samples;Min_cycle;Max_cycle;Signal;HPM_P1;HPM_P2
2022/12/01 00:03:08;;;;;;;24.60;17.77;;;;;;;5.50;91.02;102807.94;6078278;29;20560;-76
2022/12/01 00:06:29;;;;;;;25.53;16.47;;;;;;;5.57;90.77;102804.97;6079807;29;20332;-77
2022/12/01 00:13:29;;;;;;;22.37;15.37;;;;;;;5.62;90.40;102802.13;6089726;28;20224;-76
2022/12/01 00:16:51;;;;;;;27.87;17.77;;;;;;;5.67;90.34;102802.84;6087413;29;21978;-76
2022/12/01 00:20:12;;;;;;;24.27;16.43;;;;;;;5.59;89.69;102803.13;6075540;28;20236;-76
2022/12/01 00:23:33;;;;;;;26.50;17.30;;;;;;;5.54;90.09;102804.22;6083999;29;20351;-77
2022/12/01 00:26:53;;;;;;;30.43;18.73;;;;;;;5.45;90.31;102800.09;6082662;29;20520;-76
2022/12/01 00:30:15;;;;;;;28.80;16.77;;;;;;;5.36;90.49;102795.06;6080849;29;20596;-76
2022/12/01 00:33:37;;;;;;;26.10;16.93;;;;;;;5.38;90.94;102789.69;6083629;29;20236;-77
2022/12/01 00:36:59;;;;;;;23.97;17.37;;;;;;;5.43;90.63;102798.41;6081361;28;20662;-76
2022/12/01 00:40:20;;;;;;;30.97;18.87;;;;;;;5.46;90.69;102792.94;6066457;29;20232;-76
2022/12/01 00:43:41;;;;;;;22.57;17.43;;;;;;;5.50;90.39;102791.91;6081381;28;20244;-75
2022/12/01 00:47:01;;;;;;;29.13;18.80;;;;;;;5.32;89.89;102793.44;6082854;29;20233;-76
2022/12/01 00:50:24;;;;;;;26.57;18.90;;;;;;;5.42;90.36;102800.19;6069750;29;20235;-77
2022/12/01 00:53:44;;;;;;;25.40;17.40;;;;;;;5.48;90.45;102794.66;6088199;28;20235;-76
2022/12/01 00:57:05;;;;;;;25.87;18.30;;;;;;;5.45;90.25;102804.56;6087219;29;20233;-76
2022/12/01 01:00:27;;;;;;;36.23;19.50;;;;;;;5.48;89.84;102799.13;6078683;28;20544;-76
2022/12/01 01:03:49;;;;;;;29.60;18.40;;;;;;;5.39;90.05;102804.78;6080844;29;20240;-76
2022/12/01 01:07:11;;;;;;;23.53;18.40;;;;;;;5.40;90.13;102806.53;6083923;29;20241;-76
2022/12/01 01:10:32;;;;;;;28.23;17.63;;;;;;;5.27;89.71;102815.94;6068984;29;20622;-77
2022/12/01 01:13:53;;;;;;;29.57;18.90;;;;;;;5.22;90.48;102821.44;6085990;29;20327;-76
2022/12/01 01:17:14;;;;;;;23.07;17.23;;;;;;;5.35;90.28;102822.75;6083123;28;20815;-75
2022/12/01 01:20:35;;;;;;;25.77;17.00;;;;;;;5.35;90.20;102830.78;6079099;28;20223;-75
2022/12/01 01:23:57;;;;;;;21.47;17.07;;;;;;;5.18;89.85;102833.16;6091678;29;20251;-76
2022/12/01 01:27:19;;;;;;;26.27;18.30;;;;;;;5.26;89.93;102833.75;6090178;29;20220;-76
2022/12/01 01:30:39;;;;;;;27.23;18.17;;;;;;;5.17;89.76;102828.75;6077563;28;20240;-77
2022/12/01 01:34:00;;;;;;;27.80;18.43;;;;;;;5.07;90.33;102835.34;6086968;28;20244;-77
2022/12/01 01:37:21;;;;;;;29.10;21.47;;;;;;;5.13;90.34;102827.09;6078314;29;20232;-77
2022/12/01 01:40:44;;;;;;;29.20;18.40;;;;;;;5.19;90.14;102828.69;6067868;29;20332;-77
2022/12/01 01:44:38;;;;;;;27.63;17.10;;;;;;;5.30;90.39;102837.22;6078274;28;20229;-76
2022/12/01 01:48:02;;;;;;;31.03;19.40;;;;;;;5.32;89.76;102828.19;6072393;29;20237;-76
2022/12/01 01:51:28;;;;;;;29.70;21.77;;;;;;;5.43;89.37;102835.84;6076563;29;20243;-77
2022/12/01 01:54:53;;;;;;;30.93;19.73;;;;;;;5.40;89.43;102833.28;6064941;29;20264;-77
2022/12/01 01:58:16;;;;;;;28.30;17.83;;;;;;;5.26;89.15;102830.22;6087862;29;20627;-76
2022/12/01 02:01:36;;;;;;;28.27;17.27;;;;;;;5.19;89.72;102834.94;6081484;29;22020;-77
2022/12/01 02:05:02;;;;;;;32.57;19.07;;;;;;;5.24;89.80;102829.38;6066725;29;20642;-77
2022/12/01 02:08:23;;;;;;;31.37;21.87;;;;;;;5.18;89.25;102826.94;6082702;29;20255;-76
2022/12/01 02:11:56;;;;;;;30.23;18.63;;;;;;;5.21;89.86;102837.53;6085184;29;20232;-76
2022/12/01 02:15:30;;;;;;;35.13;21.07;;;;;;;5.26;90.24;102830.22;6067952;29;20244;-76
2022/12/01 02:18:58;;;;;;;33.00;21.83;;;;;;;5.31;89.83;102834.50;6088605;29;20239;-76
2022/12/01 02:22:30;;;;;;;33.27;21.03;;;;;;;5.25;89.94;102831.16;6080519;29;20629;-75
2022/12/01 02:26:06;;;;;;;26.10;16.93;;;;;;;5.35;89.82;102827.22;6083233;28;20235;-75
2022/12/01 02:30:01;;;;;;;31.43;18.80;;;;;;;5.34;89.23;102829.00;6090573;29;20232;-76
2022/12/01 02:33:28;;;;;;;30.87;21.63;;;;;;;5.38;89.00;102832.47;6085495;29;20545;-76
2022/12/01 02:36:53;;;;;;;40.67;22.20;;;;;;;5.34;89.03;102826.34;6093030;28;20235;-76
2022/12/01 02:40:20;;;;;;;24.60;16.90;;;;;;;5.32;88.92;102828.19;6080366;29;20324;-75
2022/12/01 02:43:47;;;;;;;26.40;18.83;;;;;;;5.29;88.87;102833.66;6095784;29;20252;-75
2022/12/01 02:47:12;;;;;;;31.53;17.17;;;;;;;5.25;89.50;102825.81;6082404;29;20282;-76
2022/12/01 02:50:36;;;;;;;32.60;19.07;;;;;;;5.27;89.30;102827.50;6079386;28;20482;-76
2022/12/01 02:53:58;;;;;;;33.10;22.00;;;;;;;5.30;89.05;102827.38;6089646;28;20471;-76
2022/12/01 02:57:19;;;;;;;31.30;19.07;;;;;;;5.25;89.10;102826.69;6085691;29;20307;-75
2022/12/01 03:00:43;;;;;;;27.63;17.43;;;;;;;5.36;88.85;102826.31;6079366;28;20318;-75
2022/12/01 03:04:19;;;;;;;36.30;20.70;;;;;;;5.35;88.25;102832.56;6094925;28;20240;-74
2022/12/01 03:07:51;;;;;;;32.43;19.57;;;;;;;5.36;88.53;102832.50;6075586;28;20323;-75
2022/12/01 03:11:25;;;;;;;27.33;19.93;;;;;;;5.24;88.42;102834.75;6080027;28;20653;-76
2022/12/01 03:14:56;;;;;;;33.63;21.00;;;;;;;5.23;88.64;102830.34;6072336;29;20279;-75
2022/12/01 03:18:26;;;;;;;29.50;19.00;;;;;;;5.17;88.54;102831.44;6092383;29;20236;-76
2022/12/01 03:21:55;;;;;;;34.73;21.07;;;;;;;5.07;89.03;102835.34;6078051;29;20256;-76
2022/12/01 03:25:19;;;;;;;34.23;22.57;;;;;;;4.93;89.22;102834.94;6078384;29;20235;-75
2022/12/01 03:28:44;;;;;;;35.43;20.60;;;;;;;4.90;89.25;102835.06;6088279;29;20689;-76
2022/12/01 03:32:12;;;;;;;32.13;21.03;;;;;;;5.07;89.25;102832.66;6084334;28;20670;-76
2022/12/01 03:35:40;;;;;;;36.13;18.40;;;;;;;5.16;88.95;102823.44;6084616;28;20241;-76
2022/12/01 03:39:04;;;;;;;42.40;21.57;;;;;;;5.15;88.60;102827.94;6087396;29;20606;-75
2022/12/01 03:42:33;;;;;;;34.27;21.07;;;;;;;5.19;88.57;102828.69;6088017;29;20259;-75
2022/12/01 03:45:59;;;;;;;31.90;20.20;;;;;;;5.16;88.55;102834.13;6080272;29;20581;-76
2022/12/01 03:49:22;;;;;;;31.47;21.57;;;;;;;5.22;88.08;102836.59;6091376;29;20274;-76
2022/12/01 03:52:49;;;;;;;26.90;18.70;;;;;;;5.19;88.23;102828.69;6077533;29;20252;-77
2022/12/01 03:56:12;;;;;;;33.07;20.33;;;;;;;5.14;88.17;102834.19;6073929;29;20239;-76
2022/12/01 03:59:37;;;;;;;32.63;19.57;;;;;;;5.23;88.58;102828.53;6083474;29;20241;-76
2022/12/01 04:03:00;;;;;;;29.63;21.17;;;;;;;5.32;88.07;102830.88;6083184;29;20228;-76
2022/12/01 04:06:22;;;;;;;31.57;18.20;;;;;;;5.30;87.77;102830.06;6087765;28;20264;-75
2022/12/01 04:09:43;;;;;;;35.77;21.60;;;;;;;5.23;87.80;102831.22;6073737;29;20240;-75
2022/12/01 04:13:04;;;;;;;34.23;19.20;;;;;;;5.24;88.07;102826.72;6097683;29;20240;-76
2022/12/01 04:16:26;;;;;;;31.80;20.30;;;;;;;5.25;88.26;102837.38;6086619;29;20236;-76
2022/12/01 04:19:47;;;;;;;34.30;22.83;;;;;;;5.29;87.97;102835.47;6072291;28;20254;-76
2022/12/01 04:23:08;;;;;;;31.30;20.50;;;;;;;5.35;87.67;102837.91;6090061;29;20228;-75
2022/12/01 04:26:31;;;;;;;36.90;20.70;;;;;;;5.15;87.57;102829.75;6084217;28;22234;-75
2022/12/01 04:29:52;;;;;;;31.73;22.67;;;;;;;5.04;88.10;102832.78;6074769;29;20235;-75
2022/12/01 04:33:14;;;;;;;37.17;20.30;;;;;;;5.03;88.45;102839.03;6098445;29;20336;-75
2022/12/01 04:36:35;;;;;;;33.43;20.47;;;;;;;5.04;88.18;102839.91;6086785;28;20257;-75
2022/12/01 04:39:56;;;;;;;31.70;19.27;;;;;;;5.10;88.48;102837.03;6071411;28;20232;-76
2022/12/01 04:43:17;;;;;;;40.77;20.80;;;;;;;5.19;88.10;102837.59;6091792;29;20236;-77
2022/12/01 04:46:38;;;;;;;36.60;22.33;;;;;;;5.18;87.87;102838.50;6085276;28;20269;-76
2022/12/01 04:50:00;;;;;;;32.97;20.67;;;;;;;5.22;87.53;102841.94;6077183;28;20246;-76
2022/12/01 04:53:21;;;;;;;26.07;17.93;;;;;;;5.10;87.78;102829.88;6090729;28;20248;-75
2022/12/01 04:56:42;;;;;;;29.93;20.03;;;;;;;5.04;87.90;102839.91;6085463;28;20673;-75
2022/12/01 05:00:11;;;;;;;31.27;20.53;;;;;;;5.06;88.42;102832.72;6072383;28;20236;-75
2022/12/01 05:03:36;;;;;;;38.57;21.73;;;;;;;5.07;88.47;102839.81;6086526;28;20248;-75
2022/12/01 05:06:58;;;;;;;40.17;26.97;;;;;;;5.22;88.18;102837.47;6090146;29;20240;-75
2022/12/01 05:10:20;;;;;;;45.60;26.43;;;;;;;5.12;86.93;102848.53;6077006;29;20224;-76
2022/12/01 05:13:44;;;;;;;37.47;22.43;;;;;;;5.09;87.57;102851.34;6085900;29;20316;-75
2022/12/01 05:17:04;;;;;;;38.00;20.17;;;;;;;4.98;87.89;102846.34;6089448;29;20232;-75
2022/12/01 05:24:07;;;;;;;35.40;21.77;;;;;;;5.07;87.87;102856.72;6080746;29;20665;-76
2022/12/01 05:27:28;;;;;;;38.77;23.77;;;;;;;5.18;87.75;102856.34;6088207;29;20236;-76
2022/12/01 05:30:50;;;;;;;42.67;20.33;;;;;;;5.12;87.39;102854.75;6081239;28;20570;-76
2022/12/01 05:34:11;;;;;;;38.50;24.43;;;;;;;5.13;87.33;102853.81;6084894;29;20244;-76
2022/12/01 05:37:33;;;;;;;36.20;23.73;;;;;;;5.07;87.13;102850.50;6089326;29;20236;-76
2022/12/01 05:40:56;;;;;;;34.63;21.73;;;;;;;4.92;87.56;102857.25;6082630;29;20232;-76
2022/12/01 05:44:17;;;;;;;35.50;20.60;;;;;;;4.99;88.33;102853.44;6083301;28;20260;-74
2022/12/01 05:47:38;;;;;;;37.63;22.20;;;;;;;4.88;88.20;102856.47;6084301;29;20252;-75
2022/12/01 05:50:59;;;;;;;34.83;21.97;;;;;;;4.92;88.31;102864.38;6089413;29;21218;-76
2022/12/01 05:54:19;;;;;;;38.67;21.03;;;;;;;4.97;88.34;102857.06;6077280;29;20510;-75
2022/12/01 05:57:43;;;;;;;36.30;20.40;;;;;;;5.05;87.99;102855.03;6079426;29;20232;-76
2022/12/01 06:01:04;;;;;;;33.73;20.30;;;;;;;5.10;87.67;102861.09;6071972;28;20258;-76
2022/12/01 06:04:25;;;;;;;37.03;21.17;;;;;;;4.90;87.50;102863.56;6078066;28;20240;-76
2022/12/01 06:07:46;;;;;;;30.13;23.73;;;;;;;4.94;88.46;102865.22;6080341;29;20319;-76
2022/12/01 06:11:07;;;;;;;34.63;21.40;;;;;;;4.91;88.25;102871.53;6076343;28;20640;-77
2022/12/01 06:14:29;;;;;;;34.20;22.00;;;;;;;4.86;88.51;102871.69;6079727;28;20572;-77
2022/12/01 06:17:50;;;;;;;35.77;19.70;;;;;;;4.90;88.43;102874.25;6080477;29;20232;-77
2022/12/01 06:21:11;;;;;;;32.07;21.70;;;;;;;4.97;88.91;102875.78;6075894;29;20227;-77
2022/12/01 06:24:32;;;;;;;42.67;22.23;;;;;;;4.92;88.51;102872.41;6082114;28;20553;-76
2022/12/01 06:27:56;;;;;;;35.23;20.33;;;;;;;4.93;88.19;102874.13;6079695;28;20240;-76
2022/12/01 06:31:18;;;;;;;33.27;21.73;;;;;;;5.02;88.53;102871.16;6085631;28;20219;-76
2022/12/01 06:34:39;;;;;;;34.53;20.00;;;;;;;5.06;88.02;102875.47;6088314;29;20240;-77
2022/12/01 06:37:59;;;;;;;28.07;20.27;;;;;;;5.08;87.99;102877.19;6077617;29;20257;-76
2022/12/01 06:41:21;;;;;;;34.70;20.60;;;;;;;5.03;87.71;102876.44;6077308;29;20259;-76
2022/12/01 06:44:42;;;;;;;33.73;19.50;;;;;;;5.09;88.12;102891.44;6072984;29;20233;-76
2022/12/01 06:48:04;;;;;;;31.90;19.63;;;;;;;5.11;87.78;102902.94;6092396;29;20236;-76
2022/12/01 06:51:25;;;;;;;30.37;20.50;;;;;;;5.13;87.86;102898.41;6074934;29;20251;-76
2022/12/01 06:54:46;;;;;;;37.90;21.20;;;;;;;5.17;87.70;102897.38;6073868;29;20535;-75
2022/12/01 06:58:07;;;;;;;38.67;20.43;;;;;;;5.06;87.67;102895.06;6087757;28;20239;-77
2022/12/01 07:01:28;;;;;;;38.93;21.80;;;;;;;4.92;87.91;102904.47;6076251;28;20256;-78
2022/12/01 07:04:50;;;;;;;29.57;20.80;;;;;;;5.10;87.55;102909.19;6062994;29;20233;-73
2022/12/01 07:08:11;;;;;;;35.80;18.20;;;;;;;5.33;88.56;102911.97;6090821;29;20236;-72
2022/12/01 07:11:35;;;;;;;32.73;20.30;;;;;;;5.22;86.85;102916.78;6081061;28;20228;-74
2022/12/01 07:14:56;;;;;;;32.63;20.63;;;;;;;5.24;87.58;102907.81;6058390;29;20240;-75
2022/12/01 07:18:17;;;;;;;36.77;19.87;;;;;;;5.06;88.05;102911.09;6091403;29;20319;-72
2022/12/01 07:21:40;;;;;;;29.07;19.13;;;;;;;5.04;87.96;102922.78;6080958;28;20236;-73
2022/12/01 07:25:01;;;;;;;31.53;20.63;;;;;;;5.13;87.54;102925.16;6062406;28;20599;-74
2022/12/01 07:28:21;;;;;;;40.90;24.07;;;;;;;4.91;87.10;102924.09;6092768;28;20252;-81
2022/12/01 07:31:42;;;;;;;36.60;22.70;;;;;;;4.94;87.46;102919.53;6090887;29;20275;-78
2022/12/01 07:35:03;;;;;;;39.07;25.03;;;;;;;4.96;87.52;102917.69;6081953;29;20236;-72
2022/12/01 07:38:27;;;;;;;36.70;20.43;;;;;;;4.91;86.97;102924.09;6097460;28;20502;-74
2022/12/01 07:41:48;;;;;;;24.13;18.43;;;;;;;4.76;87.09;102918.31;6089473;29;20248;-73
2022/12/01 07:45:09;;;;;;;29.93;18.50;;;;;;;4.80;87.65;102917.28;6085313;29;20240;-73
2022/12/01 07:48:30;;;;;;;31.63;19.33;;;;;;;4.96;86.78;102919.47;6095513;29;20319;-73
2022/12/01 07:51:51;;;;;;;36.07;21.60;;;;;;;5.06;86.59;102919.13;6087639;28;20236;-74
2022/12/01 07:55:13;;;;;;;33.30;20.20;;;;;;;4.92;86.39;102923.19;6077407;29;20342;-77
2022/12/01 07:58:34;;;;;;;31.23;17.60;;;;;;;4.97;86.65;102922.09;6090215;28;20643;-76
2022/12/01 08:01:55;;;;;;;42.03;22.80;;;;;;;5.13;86.24;102934.00;6075319;28;20259;-73
2022/12/01 08:05:16;;;;;;;29.27;20.00;;;;;;;4.99;86.55;102927.38;6059250;28;20239;-74
2022/12/01 08:08:40;;;;;;;40.23;22.00;;;;;;;4.95;86.24;102928.41;6067323;28;20240;-72
2022/12/01 08:12:03;;;;;;;30.07;18.60;;;;;;;5.09;86.25;102942.22;6062248;28;20247;-72
2022/12/01 08:15:23;;;;;;;26.40;18.53;;;;;;;5.03;86.37;102939.75;6053559;28;20256;-69
2022/12/01 08:18:45;;;;;;;32.90;20.03;;;;;;;5.12;86.07;102942.09;6065870;28;20236;-71
2022/12/01 08:22:06;;;;;;;38.40;20.77;;;;;;;5.25;86.03;102941.66;6052100;28;20577;-73
2022/12/01 08:25:27;;;;;;;27.23;17.93;;;;;;;5.36;84.85;102941.28;6057074;29;20239;-74
2022/12/01 08:28:49;;;;;;;29.37;19.37;;;;;;;5.39;84.88;102946.53;6070063;29;20714;-76
2022/12/01 08:32:10;;;;;;;32.77;19.23;;;;;;;5.43;84.73;102942.81;6075345;28;20241;-72
2022/12/01 08:35:32;;;;;;;29.17;18.37;;;;;;;5.57;84.42;102944.06;6074542;28;20232;-72
2022/12/01 08:38:54;;;;;;;34.47;19.53;;;;;;;5.56;83.96;102941.47;6069622;29;20224;-72
2022/12/01 08:42:15;;;;;;;28.90;19.00;;;;;;;5.56;83.46;102944.16;6083727;28;20233;-74
2022/12/01 08:45:37;;;;;;;31.63;17.93;;;;;;;5.46;83.41;102940.03;6085352;28;20239;-71
2022/12/01 08:48:58;;;;;;;35.93;18.43;;;;;;;5.27;83.46;102952.28;6092740;28;20237;-72
2022/12/01 08:52:20;;;;;;;23.93;17.00;;;;;;;5.32;83.57;102956.53;6087699;29;20244;-73
2022/12/01 08:55:41;;;;;;;27.93;15.03;;;;;;;5.55;85.87;102955.75;6075676;28;20247;-75
2022/12/01 08:59:02;;;;;;;26.73;18.73;;;;;;;5.96;86.83;102954.34;6092831;29;20248;-76
2022/12/01 09:02:25;;;;;;;29.57;17.57;;;;;;;5.78;82.93;102960.31;6081714;29;20607;-80
2022/12/01 09:05:46;;;;;;;32.47;20.60;;;;;;;5.64;82.73;102958.13;6075104;28;20231;-78
2022/12/01 09:09:07;;;;;;;33.63;17.97;;;;;;;5.43;82.92;102958.84;6085457;29;20248;-74
2022/12/01 09:12:28;;;;;;;26.23;16.93;;;;;;;5.49;82.68;102953.28;6082357;29;20230;-83
2022/12/01 09:15:55;;;;;;;30.67;19.30;;;;;;;5.46;81.84;102961.44;6078121;28;20235;-74
2022/12/01 09:19:18;;;;;;;26.87;16.30;;;;;;;5.53;83.34;102960.28;6078118;29;20324;-67
2022/12/01 09:22:39;;;;;;;29.27;17.77;;;;;;;5.59;81.52;102965.44;6054376;29;20232;-73
2022/12/01 09:26:00;;;;;;;26.70;18.80;;;;;;;5.52;81.46;102966.56;6071878;29;20630;-74
2022/12/01 09:29:21;;;;;;;22.43;16.83;;;;;;;5.55;81.56;102961.09;6076996;29;20316;-74
2022/12/01 09:32:42;;;;;;;26.63;15.87;;;;;;;5.73;80.83;102963.16;6064696;29;20276;-73
2022/12/01 09:36:06;;;;;;;30.37;17.37;;;;;;;5.89;80.70;102963.50;6078560;29;20256;-73
2022/12/01 09:39:28;;;;;;;27.23;16.87;;;;;;;5.86;79.87;102967.16;6075834;28;20772;-75
2022/12/01 09:42:50;;;;;;;25.57;14.37;;;;;;;5.85;79.62;102965.44;6074583;29;20235;-74
2022/12/01 09:46:18;;;;;;;28.50;16.00;;;;;;;5.66;79.38;102969.63;6075628;29;21136;-74
2022/12/01 09:49:46;;;;;;;28.27;17.83;;;;;;;5.34;79.44;102976.09;6084132;29;20399;-75
2022/12/01 09:53:14;;;;;;;25.67;15.00;;;;;;;5.49;79.72;102966.66;6085092;29;20228;-74
2022/12/01 09:56:42;;;;;;;25.80;13.23;;;;;;;5.59;79.38;102958.28;6078510;29;20721;-73
2022/12/01 10:00:11;;;;;;;25.50;14.83;;;;;;;5.72;79.00;102963.19;6068884;29;20232;-76
2022/12/01 10:03:39;;;;;;;25.37;16.00;;;;;;;5.59;78.71;102952.94;6085641;29;20220;-73
2022/12/01 10:07:02;;;;;;;25.83;14.53;;;;;;;5.85;81.57;102960.06;6076420;29;20239;-75
2022/12/01 10:10:30;;;;;;;28.43;17.43;;;;;;;5.78;79.01;102954.97;6071848;29;20670;-75
2022/12/01 10:13:50;;;;;;;24.43;14.60;;;;;;;5.68;78.95;102957.09;6089270;29;20245;-73
2022/12/01 10:17:24;;;;;;;23.97;13.87;;;;;;;5.40;79.69;102953.63;6079617;29;20247;-74
2022/12/01 10:20:50;;;;;;;17.37;14.03;;;;;;;5.11;79.64;102949.22;6074969;29;20232;-78
2022/12/01 10:24:26;;;;;;;25.70;16.20;;;;;;;5.23;80.26;102947.97;6089311;29;20240;-76
2022/12/01 10:28:02;;;;;;;26.47;14.87;;;;;;;5.20;79.78;102950.72;6080970;29;20608;-75
2022/12/01 10:31:30;;;;;;;25.50;13.70;;;;;;;5.29;79.90;102939.75;6082971;28;20236;-78
2022/12/01 10:34:51;;;;;;;33.13;16.83;;;;;;;5.38;79.86;102948.31;6071607;29;20258;-76
2022/12/01 10:38:27;;;;;;;23.47;15.90;;;;;;;5.18;79.77;102941.88;6063958;29;20820;-71
2022/12/01 10:41:49;;;;;;;26.60;15.77;;;;;;;5.13;80.17;102938.50;6050082;29;20542;-74
2022/12/01 10:45:15;;;;;;;30.13;14.47;;;;;;;5.20;80.01;102940.91;6049444;29;20536;-76
2022/12/01 10:48:52;;;;;;;19.43;12.57;;;;;;;4.96;80.22;102943.53;6066382;29;20335;-78
2022/12/01 10:52:31;;;;;;;34.70;16.53;;;;;;;5.07;80.24;102938.72;6064136;28;20240;-80
2022/12/01 10:56:01;;;;;;;20.13;12.13;;;;;;;4.95;80.20;102933.75;6056119;29;20232;-75
2022/12/01 10:59:28;;;;;;;29.90;15.60;;;;;;;4.87;80.46;102939.34;6058405;29;20304;-74
2022/12/01 11:02:50;;;;;;;17.93;13.13;;;;;;;4.43;80.78;102945.19;6071363;29;20268;-81
2022/12/01 11:06:11;;;;;;;23.50;12.43;;;;;;;4.76;80.21;102944.16;6069908;29;20268;-74
2022/12/01 11:09:33;;;;;;;18.90;11.30;;;;;;;4.97;80.34;102937.25;6074579;29;20241;-73
2022/12/01 11:12:56;;;;;;;24.40;13.23;;;;;;;5.01;79.87;102934.44;6072114;29;20631;-77
2022/12/01 11:16:34;;;;;;;24.43;11.53;;;;;;;5.05;80.16;102932.56;6076422;29;20268;-76
2022/12/01 11:19:57;;;;;;;16.63;11.87;;;;;;;5.05;80.39;102941.41;6062419;29;20232;-74
2022/12/01 11:23:27;;;;;;;20.50;12.90;;;;;;;4.75;81.21;102942.41;6081477;28;20240;-74
2022/12/01 11:26:47;;;;;;;22.57;12.07;;;;;;;4.54;82.03;102946.63;6062043;28;20319;-73
2022/12/01 11:30:24;;;;;;;24.83;13.17;;;;;;;4.54;82.44;102933.28;6065325;29;20269;-77
2022/12/01 11:33:50;;;;;;;28.57;15.17;;;;;;;4.65;82.48;102938.28;6073354;29;20236;-76
2022/12/01 11:37:18;;;;;;;25.77;12.83;;;;;;;4.40;83.60;102932.81;6058864;29;20228;-77
2022/12/01 11:40:46;;;;;;;20.73;12.60;;;;;;;4.52;83.44;102936.91;6064972;29;20247;-76
2022/12/01 11:44:17;;;;;;;25.60;13.57;;;;;;;4.42;83.56;102938.13;6059711;29;20232;-75
2022/12/01 11:48:02;;;;;;;17.90;11.37;;;;;;;4.29;83.63;102942.97;6072503;29;20232;-76
2022/12/01 11:51:28;;;;;;;22.90;13.93;;;;;;;4.52;82.86;102944.94;6076225;29;20236;-77
2022/12/01 11:54:59;;;;;;;21.23;10.70;;;;;;;4.62;82.59;102944.59;6053713;29;20595;-77
2022/12/01 11:58:20;;;;;;;27.20;12.73;;;;;;;4.64;82.13;102937.41;6073998;29;20322;-82
2022/12/01 12:02:04;;;;;;;17.20;9.97;;;;;;;4.52;81.87;102937.81;6071802;28;20240;-80
2022/12/01 12:05:44;;;;;;;15.40;9.50;;;;;;;4.57;82.41;102930.50;6059717;29;20267;-80
2022/12/01 12:09:23;;;;;;;15.77;10.93;;;;;;;4.64;81.39;102936.53;6067949;29;20256;-80
2022/12/01 12:13:01;;;;;;;22.93;11.00;;;;;;;4.66;81.70;102937.34;6061673;29;20331;-80
2022/12/01 12:16:34;;;;;;;19.03;11.10;;;;;;;4.62;80.90;102930.38;6074515;29;20255;-79
2022/12/01 12:20:15;;;;;;;18.67;9.93;;;;;;;4.73;81.29;102928.25;6066735;29;20327;-80
2022/12/01 12:23:50;;;;;;;17.47;9.43;;;;;;;4.58;80.25;102926.94;6081102;29;20236;-80
2022/12/01 12:27:23;;;;;;;18.80;9.97;;;;;;;4.42;81.08;102922.94;6075169;29;20245;-80
2022/12/01 12:30:52;;;;;;;19.20;9.70;;;;;;;4.42;81.45;102920.28;6070812;29;20235;-82
2022/12/01 12:34:22;;;;;;;15.40;9.23;;;;;;;4.43;81.55;102921.16;6077210;29;20244;-82
2022/12/01 12:37:51;;;;;;;11.50;8.87;;;;;;;4.61;81.31;102928.63;6067938;29;20220;-82
2022/12/01 12:41:28;;;;;;;15.73;8.97;;;;;;;4.56;80.69;102927.88;6072050;28;20255;-81
2022/12/01 12:44:51;;;;;;;17.20;10.90;;;;;;;4.49;81.10;102937.00;6067434;29;20229;-82
2022/12/01 12:48:25;;;;;;;19.00;11.37;;;;;;;4.60;81.22;102925.06;6080992;28;20327;-82
2022/12/01 12:51:50;;;;;;;18.70;10.43;;;;;;;4.59;81.40;102920.66;6075629;29;20261;-81
2022/12/01 12:55:19;;;;;;;26.33;12.77;;;;;;;4.34;82.37;102925.00;6055477;28;20319;-74
2022/12/01 12:58:49;;;;;;;19.57;10.13;;;;;;;4.33;81.85;102923.25;6071954;29;20228;-75
2022/12/01 13:02:15;;;;;;;23.83;16.17;;;;;;;4.26;82.79;102924.34;6063380;29;20244;-73
2022/12/01 13:05:42;;;;;;;38.37;16.50;;;;;;;4.17;83.56;102931.75;6064921;29;20235;-76
2022/12/01 13:09:09;;;;;;;21.27;12.47;;;;;;;3.99;84.70;102925.16;6067323;29;20546;-73
2022/12/01 13:12:32;;;;;;;18.40;11.87;;;;;;;4.05;84.89;102930.31;6067714;29;20228;-75
2022/12/01 13:15:55;;;;;;;16.47;9.40;;;;;;;4.02;84.66;102931.31;6060114;28;20335;-74
2022/12/01 13:19:21;;;;;;;20.33;8.90;;;;;;;4.01;85.05;102924.19;6074600;28;20252;-74
2022/12/01 13:22:45;;;;;;;21.30;11.67;;;;;;;4.07;85.76;102927.63;6059638;29;20236;-74
2022/12/01 13:26:09;;;;;;;18.63;11.63;;;;;;;4.26;84.74;102921.69;6067304;28;20289;-75
2022/12/01 13:29:34;;;;;;;17.57;9.50;;;;;;;4.23;84.81;102916.44;6072737;28;20240;-75
2022/12/01 13:33:01;;;;;;;22.13;11.43;;;;;;;4.25;84.84;102929.75;6074623;29;20240;-74
2022/12/01 13:36:23;;;;;;;15.80;9.40;;;;;;;4.09;85.18;102936.47;6079599;29;20243;-73
2022/12/01 13:39:45;;;;;;;16.93;10.67;;;;;;;4.01;85.11;102932.19;6064380;29;20228;-73
2022/12/01 13:43:18;;;;;;;13.80;9.07;;;;;;;4.01;85.22;102934.88;6082043;29;20232;-73
2022/12/01 13:46:51;;;;;;;17.73;9.03;;;;;;;4.07;84.80;102933.81;6068866;28;20254;-74
2022/12/01 13:50:39;;;;;;;15.20;8.67;;;;;;;4.11;84.33;102934.63;6063524;29;20685;-74
2022/12/01 13:54:05;;;;;;;19.33;7.67;;;;;;;4.15;85.22;102925.59;6078845;29;20232;-73
2022/12/01 13:57:31;;;;;;;18.27;8.17;;;;;;;4.30;84.58;102928.66;6077460;28;20623;-74
2022/12/01 14:00:52;;;;;;;14.33;8.83;;;;;;;4.25;84.79;102932.41;6066258;29;20265;-75
2022/12/01 14:04:30;;;;;;;22.73;14.57;;;;;;;4.20;85.03;102929.88;6077944;29;20256;-74
2022/12/01 14:07:52;;;;;;;22.90;15.33;;;;;;;4.28;85.17;102925.19;6078231;29;20232;-75
2022/12/01 14:11:20;;;;;;;19.57;11.37;;;;;;;4.29;85.10;102921.59;6074488;29;20239;-82
2022/12/01 14:14:52;;;;;;;22.77;9.27;;;;;;;4.36;84.79;102927.63;6072016;29;20240;-72
2022/12/01 14:18:32;;;;;;;13.07;8.43;;;;;;;4.30;84.22;102922.47;6071812;29;20236;-73
2022/12/01 14:21:53;;;;;;;11.77;7.43;;;;;;;4.29;85.03;102924.28;6072521;29;21258;-74
2022/12/01 14:25:27;;;;;;;11.37;7.47;;;;;;;4.14;85.75;102921.16;6074319;28;20232;-74
2022/12/01 14:29:23;;;;;;;17.53;10.27;;;;;;;4.20;89.46;102920.97;6074843;29;20232;-65
2022/12/01 14:32:46;;;;;;;10.60;7.93;;;;;;;3.98;86.44;102920.75;6071022;29;20323;-73
2022/12/01 14:36:09;;;;;;;20.47;9.17;;;;;;;3.98;86.45;102926.09;6065242;28;20681;-74
2022/12/01 14:39:33;;;;;;;16.47;8.10;;;;;;;3.90;86.34;102928.94;6066445;28;20252;-76
2022/12/01 14:46:42;;;;;;;18.60;10.03;;;;;;;4.19;85.50;102913.91;6073559;29;20647;-78
2022/12/01 14:50:13;;;;;;;14.33;8.13;;;;;;;4.11;85.02;102914.13;6062833;28;20244;-74
2022/12/01 14:53:37;;;;;;;14.07;8.47;;;;;;;4.04;84.43;102912.56;6077566;29;20228;-76
2022/12/01 14:57:03;;;;;;;19.53;9.30;;;;;;;4.07;84.05;102906.28;6072693;29;20263;-74
2022/12/01 15:00:25;;;;;;;10.13;6.63;;;;;;;4.07;84.04;102912.47;6066581;29;20232;-78
2022/12/01 15:03:49;;;;;;;14.43;8.60;;;;;;;3.97;83.90;102910.97;6080448;29;20233;-77
2022/12/01 15:07:12;;;;;;;19.83;9.27;;;;;;;3.98;84.14;102920.75;6077087;29;20236;-77
2022/12/01 15:10:34;;;;;;;23.83;12.47;;;;;;;4.07;84.02;102915.13;6069906;28;20323;-76
2022/12/01 15:13:57;;;;;;;17.03;9.50;;;;;;;4.00;83.95;102908.25;6074985;29;20237;-75
2022/12/01 15:17:29;;;;;;;12.20;7.07;;;;;;;4.09;83.75;102913.28;6066811;29;20261;-73
2022/12/01 15:20:56;;;;;;;14.83;7.40;;;;;;;3.94;84.00;102913.75;6074988;29;20231;-85
2022/12/01 15:24:23;;;;;;;11.80;10.43;;;;;;;3.90;83.74;102904.09;6085993;29;20241;-82
2022/12/01 15:27:44;;;;;;;12.53;7.20;;;;;;;3.74;84.42;102908.09;6060940;29;20228;-84
2022/12/01 15:31:11;;;;;;;16.83;8.30;;;;;;;3.75;84.76;102910.75;6081481;28;20841;-85
2022/12/01 15:34:35;;;;;;;14.57;8.00;;;;;;;3.66;84.63;102904.78;6066458;29;20237;-73
2022/12/01 15:37:56;;;;;;;12.53;7.47;;;;;;;3.69;84.85;102910.88;6066321;29;20600;-80
2022/12/01 15:41:20;;;;;;;14.70;7.67;;;;;;;3.75;84.64;102912.53;6071978;28;20240;-78
2022/12/01 15:44:41;;;;;;;13.53;8.77;;;;;;;3.87;84.86;102920.16;6077465;28;20224;-84
2022/12/01 15:48:14;;;;;;;12.07;10.70;;;;;;;3.90;84.79;102910.28;6082708;28;20315;-83
2022/12/01 15:51:35;;;;;;;9.80;8.50;;;;;;;4.00;83.77;102913.56;6088562;29;20618;-85
2022/12/01 15:54:59;;;;;;;20.83;10.10;;;;;;;4.11;83.71;102913.25;6076835;29;20260;-84
2022/12/01 15:58:24;;;;;;;8.20;7.13;;;;;;;4.07;83.73;102921.34;6094246;29;20236;-82